sensor_id;sensor_type;location;lat;lon;timestamp;pressure;altitude;pressure_sealevel;temperature;humidity
56713;BME280;42589;45.536;9.032;2023-03-25T00:00:26;99344.84;;;21.42;43.25
56713;BME280;42589;45.536;9.032;2023-03-25T00:03:30;99340.41;;;21.17;43.70
56713;BME280;42589;45.536;9.032;2023-03-25T00:06:32;99342.25;;;21.70;42.32
56713;BME280;42589;45.536;9.032;2023-03-25T00:09:33;99345.25;;;21.97;42.15
56713;BME280;42589;45.536;9.032;2023-03-25T00:12:39;99340.75;;;21.09;43.89
56713;BME280;42589;45.536;9.032;2023-03-25T00:15:41;99341.88;;;21.31;43.48
56713;BME280;42589;45.536;9.032;2023-03-25T00:18:45;99328.72;;;21.35;43.44
56713;BME280;42589;45.536;9.032;2023-03-25T00:21:48;99340.09;;;21.72;42.18
56713;BME280;42589;45.536;9.032;2023-03-25T00:24:51;99335.56;;;21.73;42.39
56713;BME280;42589;45.536;9.032;2023-03-25T00:27:52;99338.22;;;21.85;41.85
56713;BME280;42589;45.536;9.032;2023-03-25T00:30:53;99318.25;;;21.86;42.38
56713;BME280;42589;45.536;9.032;2023-03-25T00:33:54;99308.38;;;21.56;42.53
56713;BME280;42589;45.536;9.032;2023-03-25T00:36:57;99319.41;;;21.90;41.98
56713;BME280;42589;45.536;9.032;2023-03-25T00:39:58;99306.41;;;21.63;42.41
56713;BME280;42589;45.536;9.032;2023-03-25T00:43:00;99306.75;;;21.67;42.03
56713;BME280;42589;45.536;9.032;2023-03-25T00:46:04;99306.50;;;21.68;42.09
56713;BME280;42589;45.536;9.032;2023-03-25T00:49:05;99295.78;;;21.62;42.22
56713;BME280;42589;45.536;9.032;2023-03-25T00:52:05;99296.75;;;21.55;42.26
56713;BME280;42589;45.536;9.032;2023-03-25T00:55:07;99301.81;;;21.64;42.30
56713;BME280;42589;45.536;9.032;2023-03-25T00:58:08;99299.78;;;21.59;42.52
56713;BME280;42589;45.536;9.032;2023-03-25T01:01:12;99289.56;;;21.49;42.70
56713;BME280;42589;45.536;9.032;2023-03-25T01:04:13;99294.25;;;21.30;43.34
56713;BME280;42589;45.536;9.032;2023-03-25T01:07:19;99284.19;;;21.38;43.29
56713;BME280;42589;45.536;9.032;2023-03-25T01:10:19;99277.13;;;21.37;42.99
56713;BME280;42589;45.536;9.032;2023-03-25T01:13:21;99276.91;;;21.38;43.02
56713;BME280;42589;45.536;9.032;2023-03-25T01:16:22;99264.41;;;21.25;42.96
56713;BME280;42589;45.536;9.032;2023-03-25T01:19:23;99268.84;;;21.08;43.57
56713;BME280;42589;45.536;9.032;2023-03-25T01:22:24;99259.56;;;21.27;43.10
56713;BME280;42589;45.536;9.032;2023-03-25T01:25:28;99262.03;;;20.94;44.97
56713;BME280;42589;45.536;9.032;2023-03-25T01:28:29;99263.34;;;21.73;42.92
56713;BME280;42589;45.536;9.032;2023-03-25T01:31:31;99265.56;;;21.29;43.60
56713;BME280;42589;45.536;9.032;2023-03-25T01:34:32;99259.09;;;21.07;43.76
56713;BME280;42589;45.536;9.032;2023-03-25T01:37:33;99264.19;;;21.39;42.74
56713;BME280;42589;45.536;9.032;2023-03-25T01:40:36;99242.88;;;21.30;43.11
56713;BME280;42589;45.536;9.032;2023-03-25T01:43:37;99256.44;;;21.42;42.71
56713;BME280;42589;45.536;9.032;2023-03-25T01:46:38;99265.22;;;21.61;42.41
56713;BME280;42589;45.536;9.032;2023-03-25T01:49:41;99250.28;;;21.59;42.71
56713;BME280;42589;45.536;9.032;2023-03-25T01:52:48;99243.81;;;21.60;42.40
56713;BME280;42589;45.536;9.032;2023-03-25T01:55:51;99232.78;;;21.49;42.43
56713;BME280;42589;45.536;9.032;2023-03-25T01:58:52;99248.75;;;21.63;42.38
56713;BME280;42589;45.536;9.032;2023-03-25T02:01:59;99240.22;;;21.54;43.12
56713;BME280;42589;45.536;9.032;2023-03-25T02:05:04;99240.91;;;21.49;42.87
56713;BME280;42589;45.536;9.032;2023-03-25T02:08:09;99244.88;;;21.70;42.23
56713;BME280;42589;45.536;9.032;2023-03-25T02:11:10;99240.63;;;21.74;42.22
56713;BME280;42589;45.536;9.032;2023-03-25T02:14:21;99236.38;;;21.78;42.23
56713;BME280;42589;45.536;9.032;2023-03-25T02:44:30;99249.59;;;21.16;43.77
56713;BME280;42589;45.536;9.032;2023-03-25T02:47:36;99239.72;;;21.10;43.46
56713;BME280;42589;45.536;9.032;2023-03-25T02:50:45;99231.94;;;21.02;43.54
56713;BME280;42589;45.536;9.032;2023-03-25T02:53:49;99244.88;;;21.23;42.53
56713;BME280;42589;45.536;9.032;2023-03-25T02:56:52;99230.78;;;21.33;42.36
56713;BME280;42589;45.536;9.032;2023-03-25T02:59:56;99235.25;;;21.27;42.70
56713;BME280;42589;45.536;9.032;2023-03-25T03:03:02;99224.81;;;21.19;43.19
56713;BME280;42589;45.536;9.032;2023-03-25T03:06:05;99229.88;;;21.16;42.99
56713;BME280;42589;45.536;9.032;2023-03-25T03:09:16;99207.06;;;21.00;43.39
56713;BME280;42589;45.536;9.032;2023-03-25T03:26:46;99214.41;;;20.57;44.30
56713;BME280;42589;45.536;9.032;2023-03-25T03:30:10;99235.44;;;20.37;44.76
56713;BME280;42589;45.536;9.032;2023-03-25T03:33:36;99221.72;;;20.38;44.91
56713;BME280;42589;45.536;9.032;2023-03-25T03:36:44;99207.66;;;19.88;44.99
56713;BME280;42589;45.536;9.032;2023-03-25T03:39:48;99232.69;;;19.95;45.31
56713;BME280;42589;45.536;9.032;2023-03-25T03:42:56;99211.94;;;19.96;45.13
56713;BME280;42589;45.536;9.032;2023-03-25T03:46:01;99223.75;;;19.94;45.05
56713;BME280;42589;45.536;9.032;2023-03-25T03:49:10;99209.69;;;19.92;45.34
56713;BME280;42589;45.536;9.032;2023-03-25T03:52:16;99232.63;;;20.02;45.42
56713;BME280;42589;45.536;9.032;2023-03-25T03:55:29;99228.50;;;19.81;45.78
56713;BME280;42589;45.536;9.032;2023-03-25T03:58:40;99229.75;;;19.66;45.60
56713;BME280;42589;45.536;9.032;2023-03-25T04:01:46;99228.69;;;19.67;45.73
56713;BME280;42589;45.536;9.032;2023-03-25T04:04:53;99235.53;;;19.63;45.98
56713;BME280;42589;45.536;9.032;2023-03-25T04:08:01;99228.31;;;19.64;45.68
56713;BME280;42589;45.536;9.032;2023-03-25T04:11:04;99225.94;;;19.49;45.42
56713;BME280;42589;45.536;9.032;2023-03-25T04:14:09;99243.00;;;19.43;45.65
56713;BME280;42589;45.536;9.032;2023-03-25T04:17:11;99236.63;;;19.37;45.63
56713;BME280;42589;45.536;9.032;2023-03-25T04:20:15;99226.09;;;19.36;45.80
56713;BME280;42589;45.536;9.032;2023-03-25T04:23:17;99222.22;;;19.32;45.88
56713;BME280;42589;45.536;9.032;2023-03-25T04:26:19;99230.25;;;19.13;46.08
56713;BME280;42589;45.536;9.032;2023-03-25T04:29:21;99246.13;;;19.21;46.57
56713;BME280;42589;45.536;9.032;2023-03-25T04:32:25;99245.41;;;19.51;45.88
56713;BME280;42589;45.536;9.032;2023-03-25T04:35:26;99253.34;;;19.02;46.92
56713;BME280;42589;45.536;9.032;2023-03-25T04:38:27;99241.84;;;19.14;46.26
56713;BME280;42589;45.536;9.032;2023-03-25T04:41:28;99255.13;;;18.52;47.00
56713;BME280;42589;45.536;9.032;2023-03-25T04:44:31;99252.38;;;18.65;47.40
56713;BME280;42589;45.536;9.032;2023-03-25T04:47:46;99258.13;;;18.75;47.12
56713;BME280;42589;45.536;9.032;2023-03-25T04:50:48;99261.94;;;18.54;47.33
56713;BME280;42589;45.536;9.032;2023-03-25T04:53:50;99252.19;;;18.60;47.33
56713;BME280;42589;45.536;9.032;2023-03-25T04:56:51;99264.13;;;18.77;47.00
56713;BME280;42589;45.536;9.032;2023-03-25T04:59:52;99231.47;;;18.61;46.73
56713;BME280;42589;45.536;9.032;2023-03-25T05:02:54;99246.75;;;18.73;46.65
56713;BME280;42589;45.536;9.032;2023-03-25T05:05:55;99261.03;;;18.67;47.12
56713;BME280;42589;45.536;9.032;2023-03-25T05:08:56;99265.03;;;18.58;47.53
56713;BME280;42589;45.536;9.032;2023-03-25T05:11:58;99249.13;;;18.56;46.91
56713;BME280;42589;45.536;9.032;2023-03-25T05:14:59;99262.13;;;18.60;47.07
56713;BME280;42589;45.536;9.032;2023-03-25T05:18:00;99260.31;;;18.53;46.84
56713;BME280;42589;45.536;9.032;2023-03-25T05:21:20;99253.81;;;18.29;47.28
56713;BME280;42589;45.536;9.032;2023-03-25T05:24:22;99239.47;;;18.42;46.99
56713;BME280;42589;45.536;9.032;2023-03-25T05:27:23;99239.69;;;18.41;46.77
56713;BME280;42589;45.536;9.032;2023-03-25T05:30:23;99259.25;;;18.54;46.96
56713;BME280;42589;45.536;9.032;2023-03-25T05:33:31;99262.75;;;18.30;47.06
56713;BME280;42589;45.536;9.032;2023-03-25T05:36:33;99243.91;;;18.30;47.20
56713;BME280;42589;45.536;9.032;2023-03-25T05:39:34;99239.94;;;18.32;47.36
56713;BME280;42589;45.536;9.032;2023-03-25T05:42:35;99255.50;;;18.62;47.38
56713;BME280;42589;45.536;9.032;2023-03-25T05:45:36;99244.25;;;18.72;46.84
56713;BME280;42589;45.536;9.032;2023-03-25T05:48:37;99250.66;;;18.71;46.93
56713;BME280;42589;45.536;9.032;2023-03-25T05:51:41;99247.34;;;18.75;46.88
56713;BME280;42589;45.536;9.032;2023-03-25T05:54:45;99233.06;;;18.75;46.97
56713;BME280;42589;45.536;9.032;2023-03-25T05:57:49;99254.31;;;18.83;47.90
56713;BME280;42589;45.536;9.032;2023-03-25T06:00:50;99248.69;;;18.91;47.09
56713;BME280;42589;45.536;9.032;2023-03-25T06:03:51;99254.88;;;19.17;46.96
56713;BME280;42589;45.536;9.032;2023-03-25T06:06:52;99249.72;;;18.90;46.42
56713;BME280;42589;45.536;9.032;2023-03-25T06:09:56;99270.75;;;18.75;47.02
56713;BME280;42589;45.536;9.032;2023-03-25T06:12:57;99265.16;;;19.01;47.44
56713;BME280;42589;45.536;9.032;2023-03-25T06:15:58;99282.81;;;19.22;47.42
56713;BME280;42589;45.536;9.032;2023-03-25T06:19:02;99277.88;;;19.19;46.59
56713;BME280;42589;45.536;9.032;2023-03-25T06:22:05;99270.03;;;19.36;46.34
56713;BME280;42589;45.536;9.032;2023-03-25T06:25:09;99288.75;;;19.49;45.59
56713;BME280;42589;45.536;9.032;2023-03-25T06:28:10;99281.00;;;19.16;46.12
56713;BME280;42589;45.536;9.032;2023-03-25T06:31:16;99266.56;;;18.47;47.91
56713;BME280;42589;45.536;9.032;2023-03-25T06:34:16;99291.31;;;18.63;48.82
56713;BME280;42589;45.536;9.032;2023-03-25T06:37:18;99296.25;;;17.62;51.39
56713;BME280;42589;45.536;9.032;2023-03-25T06:40:19;99277.84;;;17.66;50.22
56713;BME280;42589;45.536;9.032;2023-03-25T06:43:21;99300.47;;;18.10;50.42
56713;BME280;42589;45.536;9.032;2023-03-25T06:46:22;99294.84;;;18.25;49.38
56713;BME280;42589;45.536;9.032;2023-03-25T06:49:23;99296.03;;;18.67;50.54
56713;BME280;42589;45.536;9.032;2023-03-25T06:52:24;99283.50;;;19.36;48.42
56713;BME280;42589;45.536;9.032;2023-03-25T06:55:25;99280.50;;;19.26;46.36
56713;BME280;42589;45.536;9.032;2023-03-25T06:58:25;99294.41;;;19.23;46.51
56713;BME280;42589;45.536;9.032;2023-03-25T07:01:33;99292.78;;;19.15;48.34
56713;BME280;42589;45.536;9.032;2023-03-25T07:04:35;99289.91;;;18.53;49.32
56713;BME280;42589;45.536;9.032;2023-03-25T07:07:37;99305.34;;;17.61;51.69
56713;BME280;42589;45.536;9.032;2023-03-25T07:10:45;99305.72;;;17.85;52.10
56713;BME280;42589;45.536;9.032;2023-03-25T07:13:49;99299.75;;;17.90;51.68
56713;BME280;42589;45.536;9.032;2023-03-25T07:16:53;99295.50;;;18.52;50.20
56713;BME280;42589;45.536;9.032;2023-03-25T07:19:55;99299.94;;;18.78;49.84
56713;BME280;42589;45.536;9.032;2023-03-25T07:22:56;99307.19;;;18.77;49.70
56713;BME280;42589;45.536;9.032;2023-03-25T07:25:57;99319.34;;;19.37;48.86
56713;BME280;42589;45.536;9.032;2023-03-25T07:28:58;99326.88;;;18.26;51.10
56713;BME280;42589;45.536;9.032;2023-03-25T07:31:59;99320.19;;;18.42;51.00
56713;BME280;42589;45.536;9.032;2023-03-25T07:35:00;99314.31;;;19.22;49.62
56713;BME280;42589;45.536;9.032;2023-03-25T07:38:01;99343.53;;;19.43;48.48
56713;BME280;42589;45.536;9.032;2023-03-25T07:41:10;99323.66;;;19.19;48.72
56713;BME280;42589;45.536;9.032;2023-03-25T07:44:11;99337.56;;;19.41;48.95
56713;BME280;42589;45.536;9.032;2023-03-25T07:47:12;99321.66;;;19.33;49.05
56713;BME280;42589;45.536;9.032;2023-03-25T07:50:13;99340.91;;;19.37;48.67
56713;BME280;42589;45.536;9.032;2023-03-25T07:53:14;99337.84;;;18.76;49.26
56713;BME280;42589;45.536;9.032;2023-03-25T07:56:16;99340.31;;;18.33;50.59
56713;BME280;42589;45.536;9.032;2023-03-25T07:59:17;99346.00;;;18.56;50.69
56713;BME280;42589;45.536;9.032;2023-03-25T08:02:18;99356.00;;;18.49;50.39
56713;BME280;42589;45.536;9.032;2023-03-25T08:05:18;99344.53;;;18.99;50.12
56713;BME280;42589;45.536;9.032;2023-03-25T08:08:22;99332.25;;;19.53;48.30
56713;BME280;42589;45.536;9.032;2023-03-25T08:11:23;99352.91;;;19.66;49.36
56713;BME280;42589;45.536;9.032;2023-03-25T08:14:23;99354.16;;;20.07;47.37
56713;BME280;42589;45.536;9.032;2023-03-25T08:17:25;99336.56;;;19.61;48.71
56713;BME280;42589;45.536;9.032;2023-03-25T08:20:26;99327.41;;;20.05;47.81
56713;BME280;42589;45.536;9.032;2023-03-25T08:23:26;99350.69;;;20.00;48.14
56713;BME280;42589;45.536;9.032;2023-03-25T08:26:28;99352.47;;;20.61;46.61
56713;BME280;42589;45.536;9.032;2023-03-25T08:29:28;99358.91;;;20.41;46.84
56713;BME280;42589;45.536;9.032;2023-03-25T08:32:30;99343.03;;;20.52;47.39
56713;BME280;42589;45.536;9.032;2023-03-25T08:35:31;99361.16;;;20.45;47.35
56713;BME280;42589;45.536;9.032;2023-03-25T08:38:32;99350.53;;;20.31;48.22
56713;BME280;42589;45.536;9.032;2023-03-25T08:41:34;99344.91;;;20.51;47.23
56713;BME280;42589;45.536;9.032;2023-03-25T08:44:37;99349.50;;;21.82;45.65
56713;BME280;42589;45.536;9.032;2023-03-25T08:47:38;99346.25;;;20.60;47.41
56713;BME280;42589;45.536;9.032;2023-03-25T08:50:39;99347.31;;;20.59;47.88
56713;BME280;42589;45.536;9.032;2023-03-25T08:53:40;99359.38;;;21.29;46.85
56713;BME280;42589;45.536;9.032;2023-03-25T08:56:41;99345.88;;;21.88;45.16
56713;BME280;42589;45.536;9.032;2023-03-25T08:59:42;99336.72;;;21.42;46.17
56713;BME280;42589;45.536;9.032;2023-03-25T09:02:43;99346.69;;;21.53;45.02
56713;BME280;42589;45.536;9.032;2023-03-25T09:05:44;99328.88;;;20.98;46.73
56713;BME280;42589;45.536;9.032;2023-03-25T09:08:45;99348.69;;;21.81;45.06
56713;BME280;42589;45.536;9.032;2023-03-25T09:11:46;99332.84;;;22.37;44.15
56713;BME280;42589;45.536;9.032;2023-03-25T09:14:47;99319.34;;;22.82;43.92
56713;BME280;42589;45.536;9.032;2023-03-25T09:17:48;99326.38;;;21.74;45.10
56713;BME280;42589;45.536;9.032;2023-03-25T09:20:57;99318.84;;;22.68;43.78
56713;BME280;42589;45.536;9.032;2023-03-25T09:23:59;99325.28;;;22.67;43.55
56713;BME280;42589;45.536;9.032;2023-03-25T09:27:01;99307.81;;;23.04;42.34
56713;BME280;42589;45.536;9.032;2023-03-25T09:30:03;99302.38;;;22.87;42.90
56713;BME280;42589;45.536;9.032;2023-03-25T09:33:04;99310.69;;;22.97;42.81
56713;BME280;42589;45.536;9.032;2023-03-25T09:36:06;99310.16;;;23.68;40.88
56713;BME280;42589;45.536;9.032;2023-03-25T09:39:09;99304.34;;;23.76;41.23
56713;BME280;42589;45.536;9.032;2023-03-25T09:42:41;99318.59;;;22.41;42.73
56713;BME280;42589;45.536;9.032;2023-03-25T09:45:46;99317.16;;;22.39;43.50
56713;BME280;42589;45.536;9.032;2023-03-25T09:48:50;99320.81;;;23.35;41.69
56713;BME280;42589;45.536;9.032;2023-03-25T09:51:51;99324.41;;;24.19;39.35
56713;BME280;42589;45.536;9.032;2023-03-25T09:54:58;99319.13;;;22.55;42.52
56713;BME280;42589;45.536;9.032;2023-03-25T10:01:35;99313.34;;;22.80;40.68
56713;BME280;42589;45.536;9.032;2023-03-25T10:14:26;99302.63;;;23.02;38.34
56713;BME280;42589;45.536;9.032;2023-03-25T10:20:40;99312.44;;;23.03;32.82
56713;BME280;42589;45.536;9.032;2023-03-25T10:24:12;99310.53;;;22.58;35.63
56713;BME280;42589;45.536;9.032;2023-03-25T10:30:32;99279.84;;;23.93;35.38
56713;BME280;42589;45.536;9.032;2023-03-25T10:33:36;99291.13;;;23.84;34.81
56713;BME280;42589;45.536;9.032;2023-03-25T10:36:46;99291.81;;;24.95;33.69
56713;BME280;42589;45.536;9.032;2023-03-25T10:39:49;99294.81;;;24.93;34.87
56713;BME280;42589;45.536;9.032;2023-03-25T10:49:39;99287.41;;;25.16;32.84
56713;BME280;42589;45.536;9.032;2023-03-25T10:52:41;99288.56;;;24.98;32.67
56713;BME280;42589;45.536;9.032;2023-03-25T10:55:41;99286.94;;;24.97;33.46
56713;BME280;42589;45.536;9.032;2023-03-25T10:58:45;99298.59;;;25.24;31.84
56713;BME280;42589;45.536;9.032;2023-03-25T11:01:47;99294.38;;;24.79;31.30
56713;BME280;42589;45.536;9.032;2023-03-25T11:04:51;99283.38;;;24.64;31.63
56713;BME280;42589;45.536;9.032;2023-03-25T11:07:56;99282.84;;;24.67;30.04
56713;BME280;42589;45.536;9.032;2023-03-25T11:11:03;99280.41;;;25.25;30.29
56713;BME280;42589;45.536;9.032;2023-03-25T11:14:05;99292.84;;;25.53;30.24
56713;BME280;42589;45.536;9.032;2023-03-25T11:17:11;99276.16;;;24.75;31.83
56713;BME280;42589;45.536;9.032;2023-03-25T11:20:26;99277.47;;;25.37;31.25
56713;BME280;42589;45.536;9.032;2023-03-25T11:26:37;99267.88;;;23.89;31.68
56713;BME280;42589;45.536;9.032;2023-03-25T11:29:38;99277.34;;;24.57;31.85
56713;BME280;42589;45.536;9.032;2023-03-25T11:32:39;99273.06;;;24.93;32.59
56713;BME280;42589;45.536;9.032;2023-03-25T11:35:42;99285.97;;;25.45;30.76
56713;BME280;42589;45.536;9.032;2023-03-25T11:38:59;99259.22;;;25.80;30.53
56713;BME280;42589;45.536;9.032;2023-03-25T11:48:30;99247.53;;;25.37;30.27
56713;BME280;42589;45.536;9.032;2023-03-25T11:51:36;99276.59;;;25.26;30.59
56713;BME280;42589;45.536;9.032;2023-03-25T11:54:38;99251.69;;;25.92;29.03
56713;BME280;42589;45.536;9.032;2023-03-25T11:57:40;99254.66;;;23.75;29.91
56713;BME280;42589;45.536;9.032;2023-03-25T12:00:49;99269.06;;;23.59;29.21
56713;BME280;42589;45.536;9.032;2023-03-25T12:03:51;99266.00;;;24.97;27.44
56713;BME280;42589;45.536;9.032;2023-03-25T12:07:09;99268.41;;;25.63;26.46
56713;BME280;42589;45.536;9.032;2023-03-25T12:10:33;99247.78;;;24.12;27.37
56713;BME280;42589;45.536;9.032;2023-03-25T12:16:58;99247.00;;;25.82;26.20
56713;BME280;42589;45.536;9.032;2023-03-25T12:30:28;99231.94;;;24.85;25.88
56713;BME280;42589;45.536;9.032;2023-03-25T12:34:04;99224.09;;;26.72;23.29
56713;BME280;42589;45.536;9.032;2023-03-25T12:37:18;99218.88;;;26.70;23.28
56713;BME280;42589;45.536;9.032;2023-03-25T12:46:57;99183.47;;;26.65;23.08
56713;BME280;42589;45.536;9.032;2023-03-25T13:00:36;99154.84;;;26.73;22.94
56713;BME280;42589;45.536;9.032;2023-03-25T13:07:11;99166.03;;;26.61;22.57
56713;BME280;42589;45.536;9.032;2023-03-25T13:10:20;99166.28;;;26.54;22.34
56713;BME280;42589;45.536;9.032;2023-03-25T13:13:23;99172.00;;;27.84;21.72
56713;BME280;42589;45.536;9.032;2023-03-25T13:16:28;99166.75;;;27.98;21.24
56713;BME280;42589;45.536;9.032;2023-03-25T13:19:32;99159.13;;;25.92;21.87
56713;BME280;42589;45.536;9.032;2023-03-25T13:22:41;99156.16;;;26.24;21.25
56713;BME280;42589;45.536;9.032;2023-03-25T13:25:55;99149.50;;;27.43;21.31
56713;BME280;42589;45.536;9.032;2023-03-25T13:29:01;99152.31;;;25.95;22.10
56713;BME280;42589;45.536;9.032;2023-03-25T13:32:09;99152.38;;;26.20;21.36
56713;BME280;42589;45.536;9.032;2023-03-25T13:35:39;99136.84;;;26.31;21.68
56713;BME280;42589;45.536;9.032;2023-03-25T13:38:48;99126.56;;;27.54;21.29
56713;BME280;42589;45.536;9.032;2023-03-25T13:42:09;99113.97;;;27.58;20.04
56713;BME280;42589;45.536;9.032;2023-03-25T13:45:17;99127.16;;;28.00;19.87
56713;BME280;42589;45.536;9.032;2023-03-25T13:48:23;99120.34;;;25.12;21.24
56713;BME280;42589;45.536;9.032;2023-03-25T13:51:27;99109.06;;;25.25;21.78
56713;BME280;42589;45.536;9.032;2023-03-25T13:54:35;99111.03;;;25.45;21.63
56713;BME280;42589;45.536;9.032;2023-03-25T14:01:09;99107.41;;;26.48;20.58
56713;BME280;42589;45.536;9.032;2023-03-25T14:08:56;99100.03;;;26.64;20.93
56713;BME280;42589;45.536;9.032;2023-03-25T14:12:01;99107.81;;;27.92;19.34
56713;BME280;42589;45.536;9.032;2023-03-25T14:15:33;99105.81;;;27.53;19.38
56713;BME280;42589;45.536;9.032;2023-03-25T14:18:57;99075.63;;;27.29;19.91
56713;BME280;42589;45.536;9.032;2023-03-25T14:25:20;99056.03;;;27.22;19.60
56713;BME280;42589;45.536;9.032;2023-03-25T14:28:36;99078.13;;;27.10;19.72
56713;BME280;42589;45.536;9.032;2023-03-25T14:31:38;99050.44;;;26.67;19.51
56713;BME280;42589;45.536;9.032;2023-03-25T14:34:39;99086.59;;;28.13;18.26
56713;BME280;42589;45.536;9.032;2023-03-25T14:37:40;99080.03;;;27.25;18.33
56713;BME280;42589;45.536;9.032;2023-03-25T14:43:44;99054.66;;;27.19;18.97
56713;BME280;42589;45.536;9.032;2023-03-25T14:46:59;99054.84;;;28.22;18.28
56713;BME280;42589;45.536;9.032;2023-03-25T14:53:08;99060.03;;;26.13;19.18
56713;BME280;42589;45.536;9.032;2023-03-25T14:56:18;99058.66;;;27.87;17.60
56713;BME280;42589;45.536;9.032;2023-03-25T14:59:23;99048.94;;;28.10;16.72
56713;BME280;42589;45.536;9.032;2023-03-25T15:02:29;99043.81;;;27.59;17.60
56713;BME280;42589;45.536;9.032;2023-03-25T15:05:32;99036.25;;;26.80;18.52
56713;BME280;42589;45.536;9.032;2023-03-25T15:11:40;99061.88;;;27.94;17.99
56713;BME280;42589;45.536;9.032;2023-03-25T15:14:42;99048.44;;;28.66;17.09
56713;BME280;42589;45.536;9.032;2023-03-25T15:17:45;99058.97;;;27.85;17.36
56713;BME280;42589;45.536;9.032;2023-03-25T15:20:48;99065.75;;;28.27;17.43
56713;BME280;42589;45.536;9.032;2023-03-25T15:24:08;99060.25;;;28.85;16.75
56713;BME280;42589;45.536;9.032;2023-03-25T15:56:30;99053.56;;;28.14;17.03
56713;BME280;42589;45.536;9.032;2023-03-25T16:03:24;99041.72;;;29.06;17.68
56713;BME280;42589;45.536;9.032;2023-03-25T16:06:27;99049.31;;;28.85;18.84
56713;BME280;42589;45.536;9.032;2023-03-25T16:09:28;99062.13;;;29.14;17.38
56713;BME280;42589;45.536;9.032;2023-03-25T16:12:32;99041.72;;;29.06;17.53
56713;BME280;42589;45.536;9.032;2023-03-25T16:15:34;99062.00;;;29.05;17.35
56713;BME280;42589;45.536;9.032;2023-03-25T16:18:38;99063.72;;;29.63;17.36
56713;BME280;42589;45.536;9.032;2023-03-25T16:21:40;99041.53;;;28.44;18.01
56713;BME280;42589;45.536;9.032;2023-03-25T16:24:42;99060.41;;;30.50;16.56
56713;BME280;42589;45.536;9.032;2023-03-25T16:27:54;99070.06;;;32.31;15.37
56713;BME280;42589;45.536;9.032;2023-03-25T16:30:56;99076.63;;;33.72;14.33
56713;BME280;42589;45.536;9.032;2023-03-25T16:33:58;99045.94;;;31.47;15.58
56713;BME280;42589;45.536;9.032;2023-03-25T16:37:00;99061.22;;;29.43;16.48
56713;BME280;42589;45.536;9.032;2023-03-25T16:40:04;99063.63;;;29.87;16.46
56713;BME280;42589;45.536;9.032;2023-03-25T16:43:06;99060.88;;;30.06;16.28
56713;BME280;42589;45.536;9.032;2023-03-25T16:46:09;99054.50;;;29.11;16.84
56713;BME280;42589;45.536;9.032;2023-03-25T16:49:14;99056.03;;;28.74;17.65
56713;BME280;42589;45.536;9.032;2023-03-25T16:52:20;99061.88;;;28.62;17.82
56713;BME280;42589;45.536;9.032;2023-03-25T16:55:31;99046.28;;;27.99;17.88
56713;BME280;42589;45.536;9.032;2023-03-25T16:58:34;99072.97;;;28.47;17.23
56713;BME280;42589;45.536;9.032;2023-03-25T17:01:39;99070.44;;;28.21;17.03
56713;BME280;42589;45.536;9.032;2023-03-25T17:04:44;99076.03;;;28.35;17.05
56713;BME280;42589;45.536;9.032;2023-03-25T17:07:50;99084.75;;;28.08;16.81
56713;BME280;42589;45.536;9.032;2023-03-25T17:10:57;99089.56;;;27.82;17.02
56713;BME280;42589;45.536;9.032;2023-03-25T17:14:07;99091.44;;;27.87;16.72
56713;BME280;42589;45.536;9.032;2023-03-25T17:17:38;99113.09;;;27.68;17.18
56713;BME280;42589;45.536;9.032;2023-03-25T17:20:47;99096.41;;;27.15;17.76
56713;BME280;42589;45.536;9.032;2023-03-25T17:23:49;99101.88;;;27.15;17.74
56713;BME280;42589;45.536;9.032;2023-03-25T17:27:03;99074.94;;;26.93;17.91
56713;BME280;42589;45.536;9.032;2023-03-25T17:30:15;99092.25;;;27.27;17.48
56713;BME280;42589;45.536;9.032;2023-03-25T17:33:30;99093.44;;;27.01;17.65
56713;BME280;42589;45.536;9.032;2023-03-25T17:36:35;99087.97;;;27.01;17.14
56713;BME280;42589;45.536;9.032;2023-03-25T17:39:37;99082.91;;;26.58;17.67
56713;BME280;42589;45.536;9.032;2023-03-25T17:42:39;99100.59;;;26.66;16.95
56713;BME280;42589;45.536;9.032;2023-03-25T17:45:40;99096.50;;;26.63;17.10
56713;BME280;42589;45.536;9.032;2023-03-25T17:48:40;99107.97;;;26.50;16.57
56713;BME280;42589;45.536;9.032;2023-03-25T17:51:41;99095.44;;;26.49;16.26
56713;BME280;42589;45.536;9.032;2023-03-25T17:54:42;99107.63;;;25.90;16.23
56713;BME280;42589;45.536;9.032;2023-03-25T17:57:43;99109.31;;;26.43;16.54
56713;BME280;42589;45.536;9.032;2023-03-25T18:00:45;99107.69;;;26.26;16.70
56713;BME280;42589;45.536;9.032;2023-03-25T18:03:46;99104.97;;;26.21;16.17
56713;BME280;42589;45.536;9.032;2023-03-25T18:06:48;99122.94;;;26.17;16.22
56713;BME280;42589;45.536;9.032;2023-03-25T18:09:49;99125.91;;;25.95;16.28
56713;BME280;42589;45.536;9.032;2023-03-25T18:12:51;99114.50;;;26.13;16.14
56713;BME280;42589;45.536;9.032;2023-03-25T18:15:53;99135.88;;;25.64;16.33
56713;BME280;42589;45.536;9.032;2023-03-25T18:18:53;99115.56;;;25.92;16.46
56713;BME280;42589;45.536;9.032;2023-03-25T18:21:54;99113.56;;;25.67;16.49
56713;BME280;42589;45.536;9.032;2023-03-25T18:24:55;99123.72;;;25.19;16.71
56713;BME280;42589;45.536;9.032;2023-03-25T18:27:56;99138.53;;;25.48;16.33
56713;BME280;42589;45.536;9.032;2023-03-25T18:30:57;99105.22;;;25.21;16.54
56713;BME280;42589;45.536;9.032;2023-03-25T18:33:58;99128.63;;;25.22;16.34
56713;BME280;42589;45.536;9.032;2023-03-25T18:36:59;99139.41;;;25.69;16.46
56713;BME280;42589;45.536;9.032;2023-03-25T18:40:00;99138.47;;;25.38;16.61
56713;BME280;42589;45.536;9.032;2023-03-25T18:43:01;99135.41;;;25.24;16.50
56713;BME280;42589;45.536;9.032;2023-03-25T18:46:03;99139.88;;;24.98;16.91
56713;BME280;42589;45.536;9.032;2023-03-25T18:49:14;99147.91;;;25.15;16.94
56713;BME280;42589;45.536;9.032;2023-03-25T18:52:14;99123.84;;;25.02;16.70
56713;BME280;42589;45.536;9.032;2023-03-25T18:55:15;99124.78;;;24.75;16.71
56713;BME280;42589;45.536;9.032;2023-03-25T18:58:19;99140.38;;;24.90;16.80
56713;BME280;42589;45.536;9.032;2023-03-25T19:01:20;99128.94;;;24.51;16.80